Terminal Aerodrome Forecast
Issued by NWS

Home | Current Version | Previous Version | Text Only | Print | Product List | Glossary On
Versions: 1 2 3 4 5 6 7 8 9 10 11 12 13 14 15 16 17 18 19 20 21 22 23 24 25 26 27 28 29 30 31 32 33 34 35 36
000
FTUS43 KDMX 271727
TAFMCW
TAF
KMCW 271727Z 2718/2818 29016KT P6SM OVC015
     FM271930 29015KT P6SM OVC020
     FM272200 29013KT P6SM OVC035
     FM280200 VRB06KT P6SM SCT030
     FM281100 04006KT P6SM BKN100
     FM281700 07011KT P6SM SCT025 OVC070=

USA.gov is the U.S. government's official web portal to all federal, state and local government web resources and services.